• Join FlightAware (Why Join?)
  • Login
  • US Flag 
01:04PM EST


 

Airport Tracker/Info


-or-


 

Live Flight TrackerFlight Track Log ✈ FDX916 ✈ 05-Apr-2013 ✈ KMEM - KELP

Flight Track Log - Related Links

Times and Time Zones

All times are in EDT time to prevent confusion due to time zone crossing. See the FDX916 flight status page for this flight to view local times or setup timezone preferences in your user account.

Time Position Orientation Groundspeed Altitude Reporting Facility
EDT Latitude Longitude Course Direction KTS MPH feet Rate Location/Type
05:42PM 35.0167 -89.9667 180° South 162 186 1,000  Level KMEM
05:43PM 35.0000 -89.9667 180° South 168 193 1,800 2,040 Climbing KMEM
05:44PM 34.9667 -90.0333 239° Southwest 260 299 4,100 2,700 Climbing KMEM
05:45PM 34.9667 -90.1167 270° West 284 327 7,200 2,760 Climbing KMEM
05:46PM 34.9531 -90.2761 264° West 313 360 11,300 2,160 Climbing Memphis Center
05:47PM 34.9406 -90.3925 263° West 344 396 13,000 2,100 Climbing Memphis Center
05:48PM 34.9281 -90.5192 263° West 378 435 15,600 2,400 Climbing Memphis Center
05:49PM 34.9111 -90.6611 262° West 388 447 17,900 2,160 Climbing Memphis Center
05:50PM 34.8961 -90.7900 262° West 393 452 20,000 1,860 Climbing Memphis Center
05:51PM 34.8767 -90.9267 260° West 393 452 21,700 1,800 Climbing Memphis Center
05:52PM 34.8553 -91.0631 259° West 412 474 23,600 1,800 Climbing Memphis Center
05:53PM 34.8314 -91.2072 259° West 422 486 25,300 1,560 Climbing Memphis Center
05:54PM 34.8094 -91.3486 259° West 427 491 26,800 1,500 Climbing Memphis Center
05:55PM 34.7914 -91.4925 261° West 433 498 28,400 1,320 Climbing Memphis Center
05:56PM 34.7714 -91.6389 261° West 439 505 29,500 780 Climbing Memphis Center
05:57PM 34.7533 -91.7700 261° West 439 505 30,000 240 Climbing Memphis Center
05:58PM 34.7328 -91.9189 261° West 444 511 30,000  Level Memphis Center
05:59PM 34.7100 -92.0675 259° West 449 517 30,000  Level Memphis Center
06:00PM 34.6911 -92.2161 261° West 449 517 30,000  Level Memphis Center
06:01PM 34.6700 -92.3647 260° West 449 517 30,000  Level Memphis Center
06:02PM 34.6467 -92.5131 259° West 449 517 30,000  Level Memphis Center
06:03PM 34.6253 -92.6639 260° West 449 517 30,000  Level Memphis Center
06:04PM 34.6036 -92.8097 260° West 449 517 30,100 600 Climbing Memphis Center
06:05PM 34.5817 -92.9631 260° West 449 517 31,200 1,320 Climbing Memphis Center
06:06PM 34.5578 -93.1058 259° West 449 517 32,800 1,500 Climbing Memphis Center
06:07PM 34.5378 -93.2542 261° West 449 517 34,200 1,200 Climbing Memphis Center
06:08PM 34.5156 -93.3969 259° West 449 517 35,200 1,080 Climbing Memphis Center
06:09PM 34.4931 -93.5422 259° West 444 511 36,400 1,020 Climbing Memphis Center
06:11PM 34.4644 -93.7589 261° West 446 513 37,900 600 Climbing Fort Worth Center
06:12PM 34.4411 -93.8958 258° West 440 506 38,000  Climbing Fort Worth Center
06:13PM 34.4222 -94.0350 261° West 426 490 38,000  Level Fort Worth Center
06:14PM 34.3986 -94.1719 258° West 426 490 38,000  Level Fort Worth Center
06:15PM 34.3750 -94.3111 258° West 421 484 38,000  Level Fort Worth Center
06:16PM 34.3553 -94.4478 260° West 415 478 38,000  Level Fort Worth Center
06:17PM 34.3336 -94.5867 259° West 420 483 38,000  Level Fort Worth Center
06:18PM 34.3094 -94.7283 258° West 420 483 38,000  Level Fort Worth Center
06:19PM 34.2872 -94.8647 259° West 425 489 38,000  Level Fort Worth Center
06:20PM 34.2631 -95.0036 258° West 430 495 38,000  Level Fort Worth Center
06:21PM 34.2383 -95.1450 258° West 430 495 38,000  Level Fort Worth Center
06:22PM 34.2158 -95.2811 259° West 430 495 38,000  Level Fort Worth Center
06:23PM 34.1950 -95.4172 260° West 425 489 38,000  Level Fort Worth Center
06:24PM 34.1678 -95.5508 256° West 420 483 38,000  Level Fort Worth Center
06:25PM 34.1428 -95.6869 258° West 415 478 38,000  Level Fort Worth Center
06:26PM 34.1194 -95.8231 258° West 415 478 38,100  Climbing Fort Worth Center
06:27PM 34.0961 -95.9564 258° West 415 478 38,000 -60 Descending Fort Worth Center
06:28PM 34.0747 -96.1047 260° West 409 471 38,000  Level Fort Worth Center
06:29PM 34.0531 -96.2428 259° West 414 476 38,000  Level Fort Worth Center
06:30PM 34.0272 -96.3783 257° West 414 476 38,000  Level Fort Worth Center
06:31PM 34.0031 -96.5117 258° West 414 476 38,000  Level Fort Worth Center
06:32PM 33.9792 -96.6494 258° West 419 482 38,000  Level Fort Worth Center
06:33PM 33.9547 -96.7850 258° West 414 476 38,100  Climbing Fort Worth Center
06:34PM 33.9303 -96.9228 258° West 414 476 38,000 -60 Descending Fort Worth Center
06:35PM 33.9058 -97.0581 258° West 414 476 38,000  Level Fort Worth Center
06:36PM 33.8789 -97.1933 257° West 414 476 38,000  Level Fort Worth Center
06:37PM 33.8581 -97.3108 258° West 414 476 38,000  Level Fort Worth Center
06:38PM 33.8311 -97.4461 257° West 420 483 38,000  Level Fort Worth Center
06:39PM 33.8081 -97.5783 258° West 414 476 38,000  Level Fort Worth Center
06:40PM 33.7828 -97.7083 257° West 414 476 38,000  Level Fort Worth Center
06:41PM 33.7594 -97.8408 258° West 414 476 38,000  Level Fort Worth Center
06:42PM 33.7339 -97.9731 257° West 409 471 38,000  Level Fort Worth Center
06:43PM 33.7061 -98.1000 255° West 404 465 38,000  Level Fort Worth Center
06:44PM 33.6822 -98.2322 258° West 404 465 38,000  Level Fort Worth Center
06:45PM 33.6564 -98.3642 257° West 409 471 38,000  Level Fort Worth Center
06:46PM 33.6281 -98.5086 257° West 409 471 38,000  Level Fort Worth Center
06:47PM 33.5997 -98.6381 255° West 415 478 38,000  Level Fort Worth Center
06:48PM 33.5753 -98.7722 258° West 410 472 38,100  Climbing Fort Worth Center
06:49PM 33.5489 -98.8939 255° West 400 460 38,000 -60 Descending Fort Worth Center
06:50PM 33.5242 -99.0256 257° West 400 460 38,000  Level Fort Worth Center
06:51PM 33.4953 -99.1569 255° West 400 460 38,000  Level Fort Worth Center
06:52PM 33.4706 -99.2886 257° West 400 460 38,000  Level Fort Worth Center
06:53PM 33.4414 -99.4225 255° West 412 474 38,000  Level Fort Worth Center
06:54PM 33.4161 -99.5511 257° West 412 474 38,000  Level Fort Worth Center
06:55PM 33.3889 -99.6800 256° West 412 474 38,000  Level Fort Worth Center
06:56PM 33.3636 -99.8111 257° West 412 474 38,000  Level Fort Worth Center
06:57PM 33.3358 -99.9397 256° West 412 474 38,000  Level Fort Worth Center
06:58PM 33.3083 -100.0706 256° West 412 474 38,000  Level Fort Worth Center
06:59PM 33.2803 -100.2014 256° West 412 474 38,000  Level Fort Worth Center
07:00PM 33.2522 -100.3297 255° West 412 474 38,000  Level Fort Worth Center
07:01PM 33.2264 -100.4581 257° West 412 474 38,000  Level Fort Worth Center
07:02PM 33.1981 -100.5861 255° West 412 474 38,000  Level Fort Worth Center
07:03PM 33.1697 -100.7189 256° West 412 474 38,000  Level Fort Worth Center
07:04PM 33.1369 -100.8517 254° West 412 474 38,000  Level Fort Worth Center
07:05PM 33.1103 -100.9797 256° West 412 474 38,100  Climbing Fort Worth Center
07:06PM 33.0836 -101.1075 256° West 412 474 38,000 -60 Descending Fort Worth Center
07:07PM 33.0547 -101.2378 255° West 406 467 38,000  Level Fort Worth Center
07:08PM 33.0214 -101.3675 253° West 412 474 38,000  Level Fort Worth Center
07:09PM 32.9967 -101.4878 256° West 412 474 38,000  Level Fort Worth Center
07:10PM 32.9650 -101.6275 255° West 407 468 38,000  Level Fort Worth Center
07:11PM 32.9422 -101.7453 257° West 412 474 38,000  Level Fort Worth Center
07:12PM 32.9125 -101.8747 255° West 412 474 38,000  Level Fort Worth Center
07:13PM 32.8831 -102.0019 255° West 412 474 38,000  Level Fort Worth Center
07:14PM 32.8531 -102.1292 254° West 412 474 38,000  Level Fort Worth Center
07:15PM 32.8275 -102.2536 256° West 407 468 38,000  Level Fort Worth Center
07:16PM 32.7975 -102.3831 255° West 407 468 38,000  Level Fort Worth Center
07:17PM 32.7672 -102.5122 254° West 407 468 38,000  Level Fort Worth Center
07:18PM 32.7342 -102.6536 255° West 412 474 38,000  Level Fort Worth Center
07:20PM 32.6658 -102.9303 254° West 402 463 38,000  Level Albuquerque Center
07:21PM 32.6339 -103.0575 253° West 403 464 38,000  Level Albuquerque Center
07:22PM 32.6044 -103.1853 255° West 404 465 38,000  Level Albuquerque Center
07:23PM 32.5719 -103.3144 253° West 408 470 38,100  Climbing Albuquerque Center
07:24PM 32.5350 -103.4672 254° West 405 466 38,000 -60 Descending Albuquerque Center
07:25PM 32.5039 -103.5944 254° West 404 465 38,000  Level Albuquerque Center
07:26PM 32.4733 -103.7208 254° West 402 463 38,000  Level Albuquerque Center
07:27PM 32.4417 -103.8469 253° West 401 461 38,000  Level Albuquerque Center
07:28PM 32.4100 -103.9736 254° West 402 463 38,000 -540 Level Albuquerque Center
07:29PM 32.3781 -104.1133 255° West 405 466 37,000 -960 Descending Albuquerque Center
07:31PM 32.3464 -104.2369 253° West 398 458 36,100 -540 Descending Albuquerque Center
07:32PM 32.3139 -104.3625 253° West 399 459 35,900 -120 Descending Albuquerque Center
07:33PM 32.2822 -104.4906 254° West 405 466 35,900 -840 Level Albuquerque Center
07:34PM 32.2508 -104.6200 254° West 409 471 34,200 -2,280 Descending Albuquerque Center
07:35PM 32.2131 -104.7725 254° West 407 468 31,300 -2,580 Descending Albuquerque Center
07:36PM 32.1819 -104.8942 253° West 401 461 28,900 -2,340 Descending Albuquerque Center
07:37PM 32.1503 -105.0125 252° West 393 452 26,600 -2,340 Descending Albuquerque Center
07:38PM 32.1217 -105.1264 254° West 382 440 24,200 -2,280 Descending Albuquerque Center
07:39PM 32.0936 -105.2364 253° West 370 426 22,000 -2,280 Descending Albuquerque Center
07:40PM 32.0597 -105.3478 250° West 346 398 19,700 -2,100 Descending Albuquerque Center
07:41PM 32.0378 -105.4461 255° West 341 392 17,700 -1,620 Descending Albuquerque Center
07:42PM 32.0222 -105.5728 262° West 329 379 16,300 -1,560 Descending Albuquerque Center
07:43PM 32.0092 -105.6767 262° West 323 372 14,600 -1,740 Descending Albuquerque Center
07:43PM 32.0033 -105.7186 261° West 319 367 13,900 -1,860 Descending Albuquerque Center
07:44PM 31.9981 -105.7783 264° West 317 365 12,700 -1,980 Descending Albuquerque Center
07:44PM 31.9928 -105.8117 259° West 313 360 12,100 -1,560 Descending Albuquerque Center
07:45PM 31.9867 -105.8778 264° West 309 356 11,100 -1,200 Descending Albuquerque Center
07:45PM 31.9825 -105.9169 263° West 300 345 10,800 -1,140 Descending Albuquerque Center
07:46PM 31.9756 -105.9753 262° West 284 327 10,000 -1,380 Descending Albuquerque Center
07:47PM 31.9650 -106.0586 262° West 260 299 8,500 -1,440 Descending Albuquerque Center
07:48PM 31.9556 -106.1328 261° West 230 265 7,100 -1,500 Descending Albuquerque Center
07:48PM 31.9547 -106.1619 268° West 207 238 6,600 -1,140 Descending Albuquerque Center
07:49PM 31.9467 -106.2006 256° West 215 247 6,000 -540 Descending Albuquerque Center
07:49PM 31.9292 -106.2211 225° Southwest 207 238 6,100  Climbing Albuquerque Center
07:50PM 31.9028 -106.2572 229° Southwest 210 242 6,000 -120 Descending Albuquerque Center
07:50PM 31.8886 -106.2789 232° Southwest 211 243 6,000 -720 Level Albuquerque Center
07:51PM 31.8669 -106.3061 227° Southwest 201 231 5,300 -840 Descending Albuquerque Center
07:52PM 31.8439 -106.3394 231° Southwest 139 160 4,600 -720 Descending Albuquerque Center
07:53PM 31.8186 -106.3750 230° Southwest 134 154 3,900 -720 Descending Albuquerque Center
07:55PM 31.8072 -106.3764 270° West  Level Estimated
08:02PM 31.8072 -106.3764 270° West  Level Estimated
08:03PM 31.8072 -106.3764 270° West  Level Estimated
08:04PM 31.8072 -106.3764 270° West  Level Estimated
08:05PM 31.8072 -106.3764 270° West  Level Estimated